Time;durP1;ratioP1;P1;durP2;ratioP2;P2;SDS_P1;SDS_P2;PMS_P1;PMS_P2;Temp;Humidity;BMP_temperature;BMP_pressure;BME280_temperature;BME280_humidity;BME280_pressure;Samples;Min_cycle;Max_cycle;Signal;HPM_P1;HPM_P2
2021/04/06 00:01:17;;;;;;;6.73;4.17;;;;;;;;;;5011222;28;20026;-77
2021/04/06 00:03:44;;;;;;;7.88;4.30;;;;;;;;;;5011117;28;20617;-77
2021/04/06 00:06:11;;;;;;;6.80;3.88;;;;;;;;;;5008257;28;20075;-77
2021/04/06 00:08:37;;;;;;;8.07;4.32;;;;;;;;;;4974629;28;20011;-78
2021/04/06 00:11:04;;;;;;;7.05;4.22;;;;;;;;;;4991761;28;20026;-77
2021/04/06 00:13:32;;;;;;;6.80;3.80;;;;;;;;;;4991810;28;20462;-82
2021/04/06 00:15:58;;;;;;;7.07;3.97;;;;;;;;;;4991940;28;20028;-82
2021/04/06 00:18:26;;;;;;;8.23;4.47;;;;;;;;;;4991593;28;20045;-78
2021/04/06 00:20:55;;;;;;;8.73;4.63;;;;;;;;;;4973890;28;20070;-79
2021/04/06 00:23:21;;;;;;;8.57;4.43;;;;;;;;;;4974177;28;20044;-81
2021/04/06 00:25:49;;;;;;;7.22;4.22;;;;;;;;;;4974313;28;20058;-77
2021/04/06 00:28:19;;;;;;;7.38;4.18;;;;;;;;;;4987144;28;20577;-77
2021/04/06 00:30:50;;;;;;;7.88;4.07;;;;;;;;;;4971936;28;20041;-77
2021/04/06 00:33:19;;;;;;;8.10;4.40;;;;;;;;;;4972078;28;20110;-75
2021/04/06 00:35:51;;;;;;;9.00;3.92;;;;;;;;;;4970541;28;20027;-74
2021/04/06 00:38:17;;;;;;;6.70;3.80;;;;;;;;;;4970647;28;20411;-76
2021/04/06 00:40:46;;;;;;;6.93;4.00;;;;;;;;;;4979613;28;20097;-75
2021/04/06 00:43:12;;;;;;;7.15;4.15;;;;;;;;;;4991426;28;20026;-76
2021/04/06 00:45:39;;;;;;;6.80;4.00;;;;;;;;;;4975112;28;20391;-78
2021/04/06 00:48:18;;;;;;;7.78;3.90;;;;;;;;;;5004836;28;20105;-74
2021/04/06 00:51:02;;;;;;;7.15;3.92;;;;;;;;;;4997356;28;20037;-80
2021/04/06 00:53:47;;;;;;;7.97;3.97;;;;;;;;;;4997608;28;20076;-75
2021/04/06 00:56:14;;;;;;;7.35;4.22;;;;;;;;;;5014758;28;20072;-79
2021/04/06 00:58:42;;;;;;;7.75;4.38;;;;;;;;;;5000022;28;20025;-79
2021/04/06 01:01:10;;;;;;;9.02;4.30;;;;;;;;;;4995764;28;20416;-78
2021/04/06 01:03:37;;;;;;;8.73;4.57;;;;;;;;;;4995173;28;20117;-78
2021/04/06 01:06:04;;;;;;;8.40;4.80;;;;;;;;;;4994920;28;20085;-79
2021/04/06 01:08:32;;;;;;;11.20;4.68;;;;;;;;;;4995019;28;20395;-82
2021/04/06 01:10:59;;;;;;;9.70;4.60;;;;;;;;;;4977912;28;20048;-77
2021/04/06 01:13:25;;;;;;;8.63;4.70;;;;;;;;;;4995147;28;20027;-80
2021/04/06 01:15:52;;;;;;;7.80;4.05;;;;;;;;;;4995321;28;20053;-77
2021/04/06 01:18:18;;;;;;;9.07;3.20;;;;;;;;;;4994819;28;20535;-77
2021/04/06 01:20:44;;;;;;;9.10;3.08;;;;;;;;;;4994959;28;20038;-78
2021/04/06 01:23:11;;;;;;;9.18;2.90;;;;;;;;;;4995547;28;20018;-82
2021/04/06 01:25:43;;;;;;;10.88;2.63;;;;;;;;;;4995520;28;20031;-77
2021/04/06 01:28:10;;;;;;;10.35;2.83;;;;;;;;;;5007498;28;20220;-77
2021/04/06 01:30:45;;;;;;;5.88;3.08;;;;;;;;;;4994370;28;20044;-80
2021/04/06 01:33:15;;;;;;;9.02;2.40;;;;;;;;;;4976601;28;20022;-79
2021/04/06 01:35:45;;;;;;;5.53;2.15;;;;;;;;;;4994291;28;20033;-80
2021/04/06 01:38:12;;;;;;;4.90;2.15;;;;;;;;;;4994000;28;20026;-75
2021/04/06 01:40:38;;;;;;;5.35;2.30;;;;;;;;;;4993749;28;20022;-75
2021/04/06 01:43:04;;;;;;;4.13;1.95;;;;;;;;;;4993879;28;20031;-77
2021/04/06 01:45:32;;;;;;;4.45;1.80;;;;;;;;;;4976482;28;20662;-79
2021/04/06 01:47:58;;;;;;;4.75;2.05;;;;;;;;;;4993961;28;20364;-76
2021/04/06 01:50:24;;;;;;;4.47;1.55;;;;;;;;;;4976436;28;20031;-80
2021/04/06 01:52:52;;;;;;;5.75;1.60;;;;;;;;;;4993847;28;20031;-78
2021/04/06 01:55:29;;;;;;;5.90;1.70;;;;;;;;;;4993616;28;20022;-77
2021/04/06 01:57:55;;;;;;;5.95;1.50;;;;;;;;;;4993176;28;20022;-73
2021/04/06 02:00:42;;;;;;;4.32;1.02;;;;;;;;;;4993564;28;20029;-73
2021/04/06 02:03:11;;;;;;;3.85;1.30;;;;;;;;;;4993225;28;20033;-74
2021/04/06 02:05:37;;;;;;;3.22;1.13;;;;;;;;;;4993301;28;20022;-74
2021/04/06 02:08:10;;;;;;;3.25;0.98;;;;;;;;;;4993490;28;20022;-73
2021/04/06 02:10:37;;;;;;;5.63;1.67;;;;;;;;;;4975809;28;20550;-73
2021/04/06 02:13:13;;;;;;;2.47;0.90;;;;;;;;;;4975866;28;20057;-74
2021/04/06 02:15:53;;;;;;;1.92;0.95;;;;;;;;;;4993312;28;20513;-74
2021/04/06 02:18:23;;;;;;;2.13;0.93;;;;;;;;;;4992384;28;20132;-73
2021/04/06 02:20:53;;;;;;;2.55;0.85;;;;;;;;;;4992339;28;20060;-74
2021/04/06 02:23:19;;;;;;;4.45;1.17;;;;;;;;;;4975025;28;20023;-74
2021/04/06 02:25:49;;;;;;;3.22;1.08;;;;;;;;;;4992712;28;20026;-74
2021/04/06 02:28:15;;;;;;;4.13;0.98;;;;;;;;;;4987979;28;20026;-74
2021/04/06 02:30:49;;;;;;;3.70;0.90;;;;;;;;;;4973110;28;20223;-74
2021/04/06 02:33:17;;;;;;;3.53;1.20;;;;;;;;;;4973375;28;20026;-73
2021/04/06 02:35:53;;;;;;;2.67;1.00;;;;;;;;;;4973201;28;20027;-74
2021/04/06 02:38:19;;;;;;;1.67;0.73;;;;;;;;;;4974388;28;20101;-74
2021/04/06 02:40:45;;;;;;;1.73;0.90;;;;;;;;;;4992128;28;20071;-74
2021/04/06 02:43:11;;;;;;;1.52;0.80;;;;;;;;;;4992491;28;20109;-74
2021/04/06 02:45:37;;;;;;;2.03;0.90;;;;;;;;;;4992418;28;20819;-74
2021/04/06 02:48:08;;;;;;;2.05;0.90;;;;;;;;;;4974862;28;20045;-74
2021/04/06 02:50:35;;;;;;;1.77;0.80;;;;;;;;;;4974657;28;20529;-73
2021/04/06 02:53:05;;;;;;;2.42;0.80;;;;;;;;;;4974630;28;20084;-73
2021/04/06 02:55:33;;;;;;;2.45;0.95;;;;;;;;;;4992215;28;20502;-73
2021/04/06 02:57:59;;;;;;;1.60;0.70;;;;;;;;;;4974687;28;20026;-74
2021/04/06 03:00:28;;;;;;;2.10;0.98;;;;;;;;;;4974576;28;20034;-74
2021/04/06 03:02:54;;;;;;;3.22;1.00;;;;;;;;;;4992408;28;20030;-73
2021/04/06 03:05:37;;;;;;;1.67;0.90;;;;;;;;;;4992119;28;20037;-73
2021/04/06 03:08:04;;;;;;;2.38;0.77;;;;;;;;;;4992029;28;20092;-74
2021/04/06 03:10:30;;;;;;;1.45;0.60;;;;;;;;;;4973464;28;20046;-74
2021/04/06 03:12:57;;;;;;;1.38;0.60;;;;;;;;;;4974529;28;20026;-74
2021/04/06 03:15:23;;;;;;;1.33;0.65;;;;;;;;;;4991817;28;20479;-74
2021/04/06 03:17:52;;;;;;;1.58;0.70;;;;;;;;;;4991766;28;20026;-74
2021/04/06 03:20:19;;;;;;;4.22;0.90;;;;;;;;;;4974129;28;20030;-74
2021/04/06 03:22:47;;;;;;;1.23;0.70;;;;;;;;;;4974047;28;20518;-73
2021/04/06 03:25:14;;;;;;;2.70;0.60;;;;;;;;;;4974412;28;20034;-74
2021/04/06 03:27:44;;;;;;;1.40;0.50;;;;;;;;;;4991890;28;20106;-74
2021/04/06 03:30:10;;;;;;;1.95;0.70;;;;;;;;;;4973657;28;20045;-73
2021/04/06 03:32:37;;;;;;;1.52;0.70;;;;;;;;;;4991612;28;20033;-73
2021/04/06 03:35:03;;;;;;;1.58;0.50;;;;;;;;;;4991727;28;20026;-74
2021/04/06 03:37:30;;;;;;;1.33;0.70;;;;;;;;;;4991488;28;20022;-73
2021/04/06 03:39:56;;;;;;;2.47;0.68;;;;;;;;;;4991531;28;20029;-74
2021/04/06 03:42:23;;;;;;;1.92;0.80;;;;;;;;;;4974218;28;20500;-74
2021/04/06 03:44:49;;;;;;;2.17;0.70;;;;;;;;;;4991415;28;20026;-73
2021/04/06 03:47:15;;;;;;;1.85;0.65;;;;;;;;;;4991227;28;20395;-74
2021/04/06 03:49:47;;;;;;;1.60;0.70;;;;;;;;;;4991611;28;20022;-73
2021/04/06 03:52:13;;;;;;;0.70;0.60;;;;;;;;;;4973721;28;20034;-74
2021/04/06 03:54:42;;;;;;;1.80;0.65;;;;;;;;;;4991637;28;20493;-74
2021/04/06 03:57:21;;;;;;;2.83;0.63;;;;;;;;;;4974228;28;20026;-74
2021/04/06 03:59:47;;;;;;;1.48;0.65;;;;;;;;;;4974014;28;20029;-74
2021/04/06 04:02:13;;;;;;;2.55;0.90;;;;;;;;;;4991398;28;20030;-74
2021/04/06 04:04:39;;;;;;;3.25;0.75;;;;;;;;;;4973995;28;20030;-74
2021/04/06 04:07:07;;;;;;;1.67;0.75;;;;;;;;;;4973953;28;20045;-74
2021/04/06 04:09:33;;;;;;;0.90;0.60;;;;;;;;;;4990997;28;20533;-74
2021/04/06 04:11:59;;;;;;;1.42;0.80;;;;;;;;;;4991200;28;20503;-73
2021/04/06 04:14:25;;;;;;;2.60;0.77;;;;;;;;;;4973648;28;20018;-73
2021/04/06 04:16:53;;;;;;;1.55;0.68;;;;;;;;;;4974088;28;20061;-74
2021/04/06 04:19:19;;;;;;;2.00;0.80;;;;;;;;;;4990995;28;20046;-73
2021/04/06 04:21:45;;;;;;;1.38;0.75;;;;;;;;;;4993325;28;20030;-74
2021/04/06 04:24:11;;;;;;;1.67;0.70;;;;;;;;;;4977481;28;20033;-73
2021/04/06 04:26:38;;;;;;;2.85;0.70;;;;;;;;;;4995141;28;20035;-73
2021/04/06 04:29:04;;;;;;;1.08;0.60;;;;;;;;;;4984037;28;20538;-74
2021/04/06 04:31:30;;;;;;;2.83;0.77;;;;;;;;;;4975322;28;20060;-74
2021/04/06 04:33:56;;;;;;;2.42;0.95;;;;;;;;;;4974246;28;20646;-73
2021/04/06 04:36:23;;;;;;;1.88;0.95;;;;;;;;;;4975229;28;20039;-74
2021/04/06 04:38:49;;;;;;;2.75;1.00;;;;;;;;;;4988658;28;20079;-74
2021/04/06 04:41:15;;;;;;;1.88;0.80;;;;;;;;;;4994683;28;20729;-74
2021/04/06 04:43:42;;;;;;;2.90;0.80;;;;;;;;;;4994802;28;20029;-73
2021/04/06 04:46:08;;;;;;;1.65;0.70;;;;;;;;;;4977242;28;20036;-73
2021/04/06 04:48:34;;;;;;;4.15;0.80;;;;;;;;;;4994697;28;20026;-74
2021/04/06 04:51:00;;;;;;;1.80;0.93;;;;;;;;;;4994673;28;20084;-74
2021/04/06 04:53:27;;;;;;;1.95;0.80;;;;;;;;;;4994614;28;20045;-74
2021/04/06 04:55:53;;;;;;;3.45;0.80;;;;;;;;;;4994235;28;20180;-74
2021/04/06 04:58:19;;;;;;;4.30;1.05;;;;;;;;;;4994250;28;20022;-74
2021/04/06 05:00:45;;;;;;;2.97;1.02;;;;;;;;;;4976805;28;20026;-74
2021/04/06 05:03:11;;;;;;;2.47;1.02;;;;;;;;;;4994345;28;20022;-74
2021/04/06 05:05:37;;;;;;;2.55;1.10;;;;;;;;;;4994178;28;20030;-75
2021/04/06 05:08:03;;;;;;;4.15;1.35;;;;;;;;;;4994110;28;20365;-74
2021/04/06 05:10:29;;;;;;;2.63;1.02;;;;;;;;;;4976183;28;20072;-74
2021/04/06 05:12:55;;;;;;;3.75;1.10;;;;;;;;;;4994111;28;20081;-74
2021/04/06 05:15:21;;;;;;;3.30;1.25;;;;;;;;;;4993843;28;20026;-74
2021/04/06 05:17:47;;;;;;;5.05;1.23;;;;;;;;;;4994117;28;20033;-73
2021/04/06 05:20:14;;;;;;;2.70;1.20;;;;;;;;;;4993645;28;20052;-74
2021/04/06 05:22:41;;;;;;;3.20;1.05;;;;;;;;;;4993963;28;20050;-74
2021/04/06 05:25:08;;;;;;;3.58;1.23;;;;;;;;;;4976374;28;20611;-74
2021/04/06 05:27:34;;;;;;;3.63;1.30;;;;;;;;;;4993966;28;20049;-74
2021/04/06 05:30:00;;;;;;;3.25;1.30;;;;;;;;;;4984951;28;20038;-74
2021/04/06 05:32:26;;;;;;;5.22;1.20;;;;;;;;;;4974976;28;20019;-73
2021/04/06 05:34:52;;;;;;;2.28;1.02;;;;;;;;;;4993775;28;20034;-74
2021/04/06 05:37:18;;;;;;;5.43;1.60;;;;;;;;;;4993522;28;20503;-74
2021/04/06 05:39:45;;;;;;;3.35;1.15;;;;;;;;;;4993675;28;20034;-74
2021/04/06 05:42:12;;;;;;;3.95;1.23;;;;;;;;;;4975958;28;20033;-74
2021/04/06 05:44:42;;;;;;;6.32;1.45;;;;;;;;;;4993776;28;20018;-73
2021/04/06 05:47:12;;;;;;;4.45;1.30;;;;;;;;;;4993104;28;20030;-73
2021/04/06 05:49:38;;;;;;;5.20;1.73;;;;;;;;;;4976071;28;20026;-73
2021/04/06 05:52:05;;;;;;;3.42;1.30;;;;;;;;;;4993410;28;20030;-74
2021/04/06 05:54:31;;;;;;;4.38;1.40;;;;;;;;;;4993244;28;20026;-74
2021/04/06 05:56:57;;;;;;;3.38;1.20;;;;;;;;;;4993456;28;20030;-73
2021/04/06 05:59:23;;;;;;;5.03;1.38;;;;;;;;;;4993191;28;20109;-73
2021/04/06 06:01:49;;;;;;;4.15;1.50;;;;;;;;;;4993145;28;20375;-74
2021/04/06 06:04:16;;;;;;;4.57;1.48;;;;;;;;;;4993044;28;20026;-73
2021/04/06 06:06:42;;;;;;;3.65;1.40;;;;;;;;;;4975047;28;20073;-74
2021/04/06 06:09:10;;;;;;;8.98;1.85;;;;;;;;;;4992615;28;20026;-74
2021/04/06 06:11:55;;;;;;;4.70;1.70;;;;;;;;;;4992433;28;20038;-74
2021/04/06 06:14:31;;;;;;;3.92;1.20;;;;;;;;;;4992239;28;20054;-74
2021/04/06 06:16:57;;;;;;;3.67;1.60;;;;;;;;;;4992327;28;20030;-74
2021/04/06 06:19:32;;;;;;;4.72;1.38;;;;;;;;;;4974397;28;20057;-74
2021/04/06 06:22:09;;;;;;;4.20;1.50;;;;;;;;;;4992106;28;20368;-74
2021/04/06 06:24:38;;;;;;;3.50;1.52;;;;;;;;;;4992259;28;20098;-73
2021/04/06 06:27:21;;;;;;;5.45;1.55;;;;;;;;;;4992825;28;20022;-74
2021/04/06 06:29:47;;;;;;;5.05;1.30;;;;;;;;;;4971664;28;20038;-74
2021/04/06 06:32:21;;;;;;;3.67;1.58;;;;;;;;;;4973006;28;20082;-73
2021/04/06 06:34:47;;;;;;;4.30;1.45;;;;;;;;;;4955898;28;20488;-75
2021/04/06 06:37:15;;;;;;;4.50;1.50;;;;;;;;;;4976523;28;20122;-74
2021/04/06 06:39:48;;;;;;;5.68;1.60;;;;;;;;;;4992488;28;20018;-74
2021/04/06 06:42:14;;;;;;;5.07;1.55;;;;;;;;;;4992006;28;20079;-74
2021/04/06 06:44:41;;;;;;;9.93;1.35;;;;;;;;;;4991984;28;20018;-74
2021/04/06 06:47:11;;;;;;;5.57;1.50;;;;;;;;;;4992359;28;20019;-73
2021/04/06 06:49:38;;;;;;;4.40;1.55;;;;;;;;;;4974601;28;20022;-74
2021/04/06 06:52:06;;;;;;;4.72;1.60;;;;;;;;;;4992173;28;20032;-74
2021/04/06 06:54:36;;;;;;;5.55;1.40;;;;;;;;;;4992016;28;20034;-74
2021/04/06 06:57:06;;;;;;;5.88;1.60;;;;;;;;;;4974701;28;20030;-74
2021/04/06 06:59:37;;;;;;;4.60;1.73;;;;;;;;;;4992223;28;20113;-74
2021/04/06 07:02:21;;;;;;;5.50;1.90;;;;;;;;;;4992166;28;20391;-74
2021/04/06 07:04:47;;;;;;;5.60;1.30;;;;;;;;;;4992447;28;20105;-74
2021/04/06 07:07:13;;;;;;;5.38;1.95;;;;;;;;;;4992247;28;20030;-74
2021/04/06 07:09:40;;;;;;;5.55;1.50;;;;;;;;;;4992098;28;20014;-74
2021/04/06 07:12:08;;;;;;;5.25;1.30;;;;;;;;;;4974648;28;20032;-74
2021/04/06 07:14:35;;;;;;;6.38;1.60;;;;;;;;;;4974393;28;20058;-74
2021/04/06 07:17:05;;;;;;;5.32;1.50;;;;;;;;;;4974165;28;20440;-74
2021/04/06 07:19:42;;;;;;;4.32;1.52;;;;;;;;;;4991559;28;20105;-74
2021/04/06 07:22:10;;;;;;;5.28;1.42;;;;;;;;;;4991670;28;20023;-74
2021/04/06 07:24:37;;;;;;;5.82;1.75;;;;;;;;;;4991670;28;20022;-74
2021/04/06 07:27:08;;;;;;;4.97;1.50;;;;;;;;;;4991682;28;20034;-74
2021/04/06 07:29:34;;;;;;;4.68;1.70;;;;;;;;;;4973744;28;20026;-74
2021/04/06 07:32:01;;;;;;;5.25;1.40;;;;;;;;;;4991839;28;20058;-74
2021/04/06 07:34:29;;;;;;;5.05;1.85;;;;;;;;;;4991525;28;20026;-74
2021/04/06 07:36:55;;;;;;;4.10;1.33;;;;;;;;;;4990770;28;20030;-74
2021/04/06 07:39:23;;;;;;;4.22;1.60;;;;;;;;;;4970964;28;20038;-75
2021/04/06 07:41:49;;;;;;;4.00;1.30;;;;;;;;;;4972055;28;20027;-74
2021/04/06 07:44:15;;;;;;;4.95;1.52;;;;;;;;;;4970685;28;20023;-73
2021/04/06 07:46:43;;;;;;;4.75;1.55;;;;;;;;;;4987141;28;20030;-74
2021/04/06 07:49:28;;;;;;;4.22;1.50;;;;;;;;;;4991572;28;20027;-74
2021/04/06 07:51:56;;;;;;;6.90;2.05;;;;;;;;;;4991404;28;20038;-74
2021/04/06 07:54:22;;;;;;;5.38;1.58;;;;;;;;;;4991095;28;20109;-75
2021/04/06 07:56:54;;;;;;;3.70;1.63;;;;;;;;;;4973238;28;20026;-75
2021/04/06 07:59:20;;;;;;;3.03;1.33;;;;;;;;;;4991486;28;20060;-74
2021/04/06 08:01:49;;;;;;;6.03;1.95;;;;;;;;;;4991484;28;20029;-74
2021/04/06 08:04:15;;;;;;;9.65;1.70;;;;;;;;;;4991168;28;20018;-74
2021/04/06 08:06:41;;;;;;;6.53;1.50;;;;;;;;;;4991277;28;20045;-74
2021/04/06 08:09:26;;;;;;;5.10;1.58;;;;;;;;;;4991086;28;20029;-75
2021/04/06 08:12:05;;;;;;;6.30;1.60;;;;;;;;;;4991049;28;20034;-73
2021/04/06 08:14:32;;;;;;;6.68;1.38;;;;;;;;;;4973215;28;20026;-74
2021/04/06 08:17:18;;;;;;;5.43;1.50;;;;;;;;;;4990983;28;20105;-73
2021/04/06 08:20:05;;;;;;;4.55;1.42;;;;;;;;;;4980503;28;20076;-74
2021/04/06 08:22:32;;;;;;;4.10;1.60;;;;;;;;;;4990340;28;20030;-74
2021/04/06 08:25:34;;;;;;;3.85;1.38;;;;;;;;;;4973681;28;20034;-75
2021/04/06 08:28:00;;;;;;;5.72;1.50;;;;;;;;;;4895694;29;20036;-78
2021/04/06 08:30:37;;;;;;;5.60;1.30;;;;;;;;;;4974862;28;20073;-74
2021/04/06 08:33:10;;;;;;;7.15;1.70;;;;;;;;;;4990561;28;20026;-74
2021/04/06 08:35:46;;;;;;;4.85;1.60;;;;;;;;;;4991200;28;20081;-73
2021/04/06 08:38:21;;;;;;;7.07;1.92;;;;;;;;;;4990684;28;20022;-73
2021/04/06 08:40:51;;;;;;;5.00;1.67;;;;;;;;;;4990881;28;20044;-76
2021/04/06 08:43:21;;;;;;;3.88;1.45;;;;;;;;;;4990672;28;20464;-75
2021/04/06 08:45:54;;;;;;;4.10;1.30;;;;;;;;;;4973441;28;20132;-76
2021/04/06 08:48:38;;;;;;;6.20;1.65;;;;;;;;;;4990663;28;20061;-75
2021/04/06 08:51:23;;;;;;;5.45;1.58;;;;;;;;;;4990714;28;20034;-75
2021/04/06 08:53:51;;;;;;;4.65;1.75;;;;;;;;;;4990719;28;20026;-75
2021/04/06 08:56:18;;;;;;;4.15;1.70;;;;;;;;;;4973249;28;20056;-77
2021/04/06 08:58:44;;;;;;;3.40;1.20;;;;;;;;;;4990948;28;20056;-73
2021/04/06 09:01:10;;;;;;;5.00;1.40;;;;;;;;;;4991087;28;20576;-74
2021/04/06 09:03:37;;;;;;;5.97;1.73;;;;;;;;;;4990852;28;20472;-75
2021/04/06 09:06:07;;;;;;;4.72;1.33;;;;;;;;;;4991210;28;20062;-73
2021/04/06 09:08:52;;;;;;;11.85;1.50;;;;;;;;;;4992377;28;20077;-77
2021/04/06 09:11:22;;;;;;;4.47;1.40;;;;;;;;;;4976806;28;20042;-72
2021/04/06 09:13:48;;;;;;;4.82;1.17;;;;;;;;;;4994455;28;20507;-75
2021/04/06 09:16:15;;;;;;;4.60;1.20;;;;;;;;;;4977004;28;20387;-77
2021/04/06 09:18:42;;;;;;;4.32;1.40;;;;;;;;;;4976729;28;20088;-75
2021/04/06 09:21:08;;;;;;;4.25;1.42;;;;;;;;;;4976682;28;20022;-74
2021/04/06 09:23:35;;;;;;;3.20;1.08;;;;;;;;;;4993898;28;20022;-75
2021/04/06 09:26:05;;;;;;;5.38;1.30;;;;;;;;;;4994071;28;20410;-74
2021/04/06 09:28:31;;;;;;;4.13;1.33;;;;;;;;;;4986963;28;20023;-74
2021/04/06 09:30:58;;;;;;;4.03;1.27;;;;;;;;;;4974298;28;20027;-74
2021/04/06 09:33:24;;;;;;;4.00;1.38;;;;;;;;;;4974532;28;20042;-77
2021/04/06 09:35:54;;;;;;;3.60;1.40;;;;;;;;;;4974408;28;20031;-75
2021/04/06 09:38:22;;;;;;;2.90;1.15;;;;;;;;;;4993686;28;20025;-74
2021/04/06 09:40:48;;;;;;;3.63;1.17;;;;;;;;;;4993696;28;20033;-75
2021/04/06 09:43:15;;;;;;;4.20;1.13;;;;;;;;;;4993810;28;20038;-74
2021/04/06 09:45:41;;;;;;;4.15;1.45;;;;;;;;;;4993600;28;20123;-72
2021/04/06 09:48:08;;;;;;;5.20;1.52;;;;;;;;;;4993978;28;20061;-71
2021/04/06 09:50:34;;;;;;;5.22;1.20;;;;;;;;;;4976251;28;20133;-74
2021/04/06 09:53:00;;;;;;;3.38;1.00;;;;;;;;;;4994035;28;20023;-79
2021/04/06 09:55:29;;;;;;;4.10;1.60;;;;;;;;;;4975992;28;20038;-77
2021/04/06 09:57:59;;;;;;;2.95;1.13;;;;;;;;;;4976298;28;20030;-74
2021/04/06 10:00:30;;;;;;;4.53;1.50;;;;;;;;;;4993537;28;20034;-82
2021/04/06 10:03:08;;;;;;;4.03;1.20;;;;;;;;;;4992981;28;20022;-76
2021/04/06 10:05:35;;;;;;;4.63;1.30;;;;;;;;;;4993583;28;20145;-73
2021/04/06 10:08:02;;;;;;;4.13;1.40;;;;;;;;;;4975929;28;20023;-80
2021/04/06 10:10:29;;;;;;;4.25;1.10;;;;;;;;;;4992983;28;20030;-77
2021/04/06 10:12:56;;;;;;;4.15;1.30;;;;;;;;;;4975838;28;20364;-76
2021/04/06 10:15:23;;;;;;;3.42;1.15;;;;;;;;;;4992830;28;20475;-74
2021/04/06 10:17:50;;;;;;;5.93;1.50;;;;;;;;;;4993085;28;20039;-75
2021/04/06 10:20:18;;;;;;;3.70;1.20;;;;;;;;;;4990891;28;20446;-77
2021/04/06 10:22:49;;;;;;;3.28;1.00;;;;;;;;;;4975720;28;20026;-75
2021/04/06 10:25:20;;;;;;;3.05;1.00;;;;;;;;;;4993396;28;20446;-81
2021/04/06 10:27:50;;;;;;;4.03;1.10;;;;;;;;;;4957887;28;20030;-75
2021/04/06 10:30:32;;;;;;;3.72;1.13;;;;;;;;;;4972868;28;20026;-75
2021/04/06 10:33:08;;;;;;;2.92;1.10;;;;;;;;;;4974414;28;20062;-76
2021/04/06 10:35:42;;;;;;;3.85;1.30;;;;;;;;;;4979813;28;20046;-75
2021/04/06 10:38:15;;;;;;;3.03;0.90;;;;;;;;;;4993826;28;20026;-80
2021/04/06 10:40:42;;;;;;;7.22;1.63;;;;;;;;;;4978267;28;20032;-80
2021/04/06 10:43:16;;;;;;;6.53;1.30;;;;;;;;;;4992841;28;20079;-77
2021/04/06 10:45:47;;;;;;;3.45;1.13;;;;;;;;;;4975306;28;20073;-81
2021/04/06 10:48:16;;;;;;;3.40;1.30;;;;;;;;;;4975940;28;20539;-75
2021/04/06 10:50:44;;;;;;;5.05;1.33;;;;;;;;;;4992769;28;20041;-75
2021/04/06 10:53:17;;;;;;;4.18;1.27;;;;;;;;;;4993166;28;20048;-75
2021/04/06 10:55:44;;;;;;;4.13;1.00;;;;;;;;;;4975283;28;20117;-77
2021/04/06 10:58:10;;;;;;;4.05;1.40;;;;;;;;;;4992585;28;20433;-78
2021/04/06 11:00:38;;;;;;;3.65;1.23;;;;;;;;;;4974766;28;20026;-75
2021/04/06 11:03:16;;;;;;;7.40;1.63;;;;;;;;;;4992139;28;20011;-73
2021/04/06 11:05:42;;;;;;;5.03;1.13;;;;;;;;;;4992665;28;20030;-73
2021/04/06 11:08:18;;;;;;;2.95;1.20;;;;;;;;;;4992226;28;20027;-74
2021/04/06 11:10:45;;;;;;;4.82;1.10;;;;;;;;;;4992367;28;20082;-80
2021/04/06 11:13:11;;;;;;;2.15;0.98;;;;;;;;;;4975654;28;20439;-73
2021/04/06 11:15:37;;;;;;;3.70;1.10;;;;;;;;;;4991660;28;20089;-72
2021/04/06 11:18:03;;;;;;;4.75;1.27;;;;;;;;;;4975123;28;20031;-73
2021/04/06 11:20:30;;;;;;;3.63;1.13;;;;;;;;;;4975045;28;20041;-73
2021/04/06 11:22:56;;;;;;;4.18;1.35;;;;;;;;;;4992691;28;20026;-73
2021/04/06 11:25:22;;;;;;;3.65;1.15;;;;;;;;;;4992556;28;20090;-73
2021/04/06 11:27:48;;;;;;;3.95;1.17;;;;;;;;;;4992272;28;20104;-73
2021/04/06 11:30:15;;;;;;;2.80;0.88;;;;;;;;;;4991957;28;20029;-74
2021/04/06 11:32:41;;;;;;;6.35;1.35;;;;;;;;;;4992240;28;20041;-73
2021/04/06 11:35:08;;;;;;;4.18;1.00;;;;;;;;;;4992321;28;20061;-71
2021/04/06 11:37:34;;;;;;;4.97;1.25;;;;;;;;;;4992402;28;20034;-71
2021/04/06 11:40:00;;;;;;;1.95;0.80;;;;;;;;;;4974636;28;20491;-72
2021/04/06 11:42:27;;;;;;;4.22;1.08;;;;;;;;;;4992382;28;20387;-71
2021/04/06 11:44:53;;;;;;;2.17;0.88;;;;;;;;;;4991923;28;20033;-73
2021/04/06 11:47:19;;;;;;;3.22;1.00;;;;;;;;;;4974626;28;20546;-72
2021/04/06 11:49:45;;;;;;;2.75;1.00;;;;;;;;;;4991793;28;20034;-72
2021/04/06 11:52:11;;;;;;;3.28;1.10;;;;;;;;;;4991962;28;20026;-72
2021/04/06 11:54:37;;;;;;;4.35;1.27;;;;;;;;;;4991931;28;20029;-72
2021/04/06 11:57:04;;;;;;;4.50;1.08;;;;;;;;;;4991760;28;20018;-70
2021/04/06 11:59:30;;;;;;;5.68;1.17;;;;;;;;;;4974340;28;20027;-72
2021/04/06 12:01:57;;;;;;;2.35;0.82;;;;;;;;;;4991542;28;20026;-72
2021/04/06 12:04:23;;;;;;;3.63;1.00;;;;;;;;;;4991546;28;20076;-72
2021/04/06 12:06:49;;;;;;;4.50;1.20;;;;;;;;;;4991722;28;20029;-72
2021/04/06 12:09:15;;;;;;;3.58;1.02;;;;;;;;;;4991374;28;20077;-74
2021/04/06 12:11:41;;;;;;;3.42;1.08;;;;;;;;;;4991122;28;20399;-73
2021/04/06 12:14:07;;;;;;;4.55;1.20;;;;;;;;;;4991389;28;20149;-72
2021/04/06 12:16:33;;;;;;;3.97;1.40;;;;;;;;;;4974074;28;20090;-73
2021/04/06 12:19:00;;;;;;;5.68;0.90;;;;;;;;;;4991422;28;20619;-74
2021/04/06 12:21:26;;;;;;;3.30;1.30;;;;;;;;;;4991047;28;20033;-79
2021/04/06 12:23:52;;;;;;;2.90;1.02;;;;;;;;;;4974003;28;20084;-77
2021/04/06 12:26:18;;;;;;;2.97;1.13;;;;;;;;;;4963959;28;20061;-76
2021/04/06 12:28:44;;;;;;;4.20;1.20;;;;;;;;;;4972087;28;20026;-72
2021/04/06 12:31:10;;;;;;;3.03;0.95;;;;;;;;;;4972182;28;20039;-74
2021/04/06 12:33:36;;;;;;;3.72;1.30;;;;;;;;;;4972235;28;20031;-74
2021/04/06 12:36:03;;;;;;;5.22;1.15;;;;;;;;;;4973644;28;20521;-72
2021/04/06 12:38:30;;;;;;;4.20;0.98;;;;;;;;;;4991511;28;20022;-79
2021/04/06 12:40:56;;;;;;;3.83;1.20;;;;;;;;;;4991474;28;20038;-72
2021/04/06 12:43:23;;;;;;;6.22;1.27;;;;;;;;;;4977069;28;20014;-74
2021/04/06 12:45:49;;;;;;;5.07;1.30;;;;;;;;;;4977516;28;20032;-74
2021/04/06 12:48:16;;;;;;;5.32;1.23;;;;;;;;;;4995112;28;20372;-74
2021/04/06 12:50:42;;;;;;;3.15;0.90;;;;;;;;;;4977067;28;20041;-74
2021/04/06 12:53:08;;;;;;;5.45;1.35;;;;;;;;;;4994700;28;20097;-74
2021/04/06 12:55:34;;;;;;;3.35;1.02;;;;;;;;;;4994769;28;20026;-76
2021/04/06 12:58:00;;;;;;;2.55;1.00;;;;;;;;;;4977262;28;20029;-75
2021/04/06 13:00:26;;;;;;;3.58;1.30;;;;;;;;;;4994452;28;20387;-74
2021/04/06 13:02:53;;;;;;;2.05;0.90;;;;;;;;;;4994781;28;20045;-76
2021/04/06 13:05:19;;;;;;;15.20;1.20;;;;;;;;;;4994545;28;20033;-76
2021/04/06 13:07:45;;;;;;;3.40;1.08;;;;;;;;;;4994528;28;20027;-78
2021/04/06 13:10:13;;;;;;;9.57;1.38;;;;;;;;;;4993919;28;20030;-74
2021/04/06 13:12:39;;;;;;;3.33;1.17;;;;;;;;;;4994615;28;20030;-75
2021/04/06 13:15:06;;;;;;;4.15;1.00;;;;;;;;;;4976532;28;20023;-74
2021/04/06 13:17:32;;;;;;;3.10;1.00;;;;;;;;;;4994131;28;20022;-75
2021/04/06 13:19:58;;;;;;;4.03;1.40;;;;;;;;;;4976681;28;20052;-76
2021/04/06 13:22:24;;;;;;;4.00;1.13;;;;;;;;;;4976715;28;20022;-74
2021/04/06 13:24:50;;;;;;;5.60;1.10;;;;;;;;;;4976740;28;20041;-75
2021/04/06 13:27:17;;;;;;;4.43;1.00;;;;;;;;;;4994291;28;20447;-74
2021/04/06 13:29:43;;;;;;;5.53;1.50;;;;;;;;;;4976659;28;20073;-76
2021/04/06 13:32:09;;;;;;;5.63;1.30;;;;;;;;;;4976706;28;20129;-73
2021/04/06 13:34:35;;;;;;;2.65;1.10;;;;;;;;;;4976356;28;20023;-73
2021/04/06 13:37:01;;;;;;;3.00;1.02;;;;;;;;;;4993818;28;20463;-74
2021/04/06 13:39:27;;;;;;;3.25;1.10;;;;;;;;;;4993897;28;20491;-74
2021/04/06 13:41:54;;;;;;;3.45;1.05;;;;;;;;;;4977341;28;20034;-75
2021/04/06 13:44:20;;;;;;;2.58;0.90;;;;;;;;;;4975031;28;20019;-73
2021/04/06 13:46:46;;;;;;;3.70;1.15;;;;;;;;;;4974594;28;20094;-73
2021/04/06 13:49:12;;;;;;;1.92;0.65;;;;;;;;;;4974461;28;20030;-74
2021/04/06 13:51:38;;;;;;;3.60;1.02;;;;;;;;;;4974687;28;20105;-73
2021/04/06 13:54:06;;;;;;;2.40;0.90;;;;;;;;;;4973477;28;20027;-72
2021/04/06 13:56:32;;;;;;;4.97;1.02;;;;;;;;;;4973997;28;20468;-74
2021/04/06 13:58:58;;;;;;;3.65;1.13;;;;;;;;;;4975429;28;20026;-72
2021/04/06 14:01:24;;;;;;;5.22;1.20;;;;;;;;;;4976360;28;20022;-74
2021/04/06 14:03:50;;;;;;;4.90;1.23;;;;;;;;;;4993654;28;20120;-75
2021/04/06 14:06:17;;;;;;;11.13;1.08;;;;;;;;;;4996707;28;20022;-73
2021/04/06 14:08:43;;;;;;;4.07;0.90;;;;;;;;;;4994357;28;20038;-81
2021/04/06 14:11:09;;;;;;;2.95;0.90;;;;;;;;;;4976881;28;20049;-73
2021/04/06 14:13:35;;;;;;;1.60;0.80;;;;;;;;;;4976720;28;20033;-75
2021/04/06 14:16:02;;;;;;;2.65;0.90;;;;;;;;;;4993853;28;20026;-74
2021/04/06 14:18:28;;;;;;;2.75;0.80;;;;;;;;;;4975952;28;20130;-75
2021/04/06 14:20:54;;;;;;;1.77;0.82;;;;;;;;;;4994023;28;20038;-75
2021/04/06 14:23:28;;;;;;;2.22;0.80;;;;;;;;;;4976584;28;20026;-75
2021/04/06 14:26:02;;;;;;;2.75;0.80;;;;;;;;;;4976379;28;20023;-75
2021/04/06 14:28:29;;;;;;;3.45;0.98;;;;;;;;;;4969970;28;20126;-75
2021/04/06 14:30:55;;;;;;;2.40;0.90;;;;;;;;;;4972671;28;20539;-73
2021/04/06 14:33:22;;;;;;;3.95;0.93;;;;;;;;;;4978411;28;20022;-75
2021/04/06 14:35:48;;;;;;;1.65;0.70;;;;;;;;;;4976164;28;20406;-74
2021/04/06 14:38:15;;;;;;;2.35;0.93;;;;;;;;;;4975910;28;20022;-74
2021/04/06 14:40:41;;;;;;;1.70;0.70;;;;;;;;;;4992882;28;20026;-75
2021/04/06 14:43:09;;;;;;;2.47;0.77;;;;;;;;;;4992858;28;20027;-72
2021/04/06 14:45:36;;;;;;;2.97;0.88;;;;;;;;;;4993355;28;20011;-71
2021/04/06 14:48:02;;;;;;;3.83;1.00;;;;;;;;;;4993332;28;20030;-75
2021/04/06 14:50:28;;;;;;;1.70;0.77;;;;;;;;;;4992935;28;20022;-75